createdAt,value
2024-04-23T00:06:57.780Z,-2.30
2024-04-23T00:14:39.856Z,-2.37
2024-04-23T00:22:18.497Z,-2.46
2024-04-23T00:30:00.074Z,-2.55
2024-04-23T00:37:39.172Z,-2.63
2024-04-23T00:45:23.207Z,-2.75
2024-04-23T00:53:02.535Z,-2.75
2024-04-23T01:00:44.768Z,-1.96
2024-04-23T01:08:24.200Z,-2.41
2024-04-23T01:16:06.840Z,-2.63
2024-04-23T01:23:51.264Z,-2.65
2024-04-23T01:31:33.172Z,-2.93
2024-04-23T01:39:12.306Z,-3.11
2024-04-23T01:46:54.029Z,-3.09
2024-04-23T01:54:33.960Z,-3.02
2024-04-23T02:02:16.985Z,-3.18
2024-04-23T02:09:56.353Z,-3.24
2024-04-23T02:17:38.800Z,-3.29
2024-04-23T02:25:21.702Z,-3.26
2024-04-23T02:33:04.858Z,-3.23
2024-04-23T02:40:43.635Z,-3.16
2024-04-23T02:48:25.642Z,-3.16
2024-04-23T02:56:05.310Z,-3.19
2024-04-23T03:03:47.473Z,-3.22
2024-04-23T03:11:26.847Z,-3.35
2024-04-23T03:19:09.435Z,-3.27
2024-04-23T03:26:48.811Z,-3.38
2024-04-23T03:34:31.204Z,-3.36
2024-04-23T03:42:10.536Z,-3.46
2024-04-23T03:49:52.457Z,-3.68
2024-04-23T03:57:32.330Z,-3.64
2024-04-23T04:05:30.666Z,-3.56
2024-04-23T04:13:20.872Z,-3.44
2024-04-23T04:21:05.411Z,-3.29
2024-04-23T04:28:45.224Z,-3.18
2024-04-23T04:36:27.138Z,-2.94
2024-04-23T04:44:07.022Z,-2.66
2024-04-23T04:51:49.167Z,-2.55
2024-04-23T04:59:28.161Z,-2.32
2024-04-23T05:07:11.087Z,-1.65
2024-04-23T05:14:50.474Z,0.59
2024-04-23T05:22:32.391Z,2.44
2024-04-23T05:30:32.334Z,3.53
2024-04-23T05:38:17.418Z,3.76
2024-04-23T05:45:56.504Z,3.52
2024-04-23T05:54:13.022Z,3.81
2024-04-23T06:02:13.257Z,5.32
2024-04-23T06:09:52.081Z,4.64
2024-04-23T06:17:41.653Z,6.09
2024-04-23T06:25:26.516Z,5.63
2024-04-23T06:33:08.692Z,6.22
2024-04-23T06:40:47.580Z,7.23
2024-04-23T06:48:29.377Z,7.68
2024-04-23T06:56:09.214Z,7.87
2024-04-23T07:03:51.510Z,8.01
2024-04-23T07:11:31.565Z,7.85
2024-04-23T07:19:13.967Z,8.27
2024-04-23T07:26:55.199Z,7.44
2024-04-23T07:34:37.399Z,7.10
2024-04-23T07:42:16.917Z,7.26
2024-04-23T07:49:59.251Z,7.45
2024-04-23T07:57:40.226Z,7.28
2024-04-23T08:05:22.397Z,7.90
2024-04-23T08:13:02.235Z,7.83
2024-04-23T08:20:44.501Z,8.94
2024-04-23T08:28:23.737Z,10.11
2024-04-23T08:36:05.980Z,10.31
2024-04-23T08:43:53.636Z,10.37
2024-04-23T08:51:36.334Z,11.27
2024-04-23T08:59:17.663Z,10.53
2024-04-23T09:06:59.830Z,9.68
2024-04-23T09:14:39.226Z,9.33
2024-04-23T09:22:21.589Z,10.02
2024-04-23T09:30:01.119Z,10.06
2024-04-23T09:37:43.726Z,10.52
2024-04-23T09:45:29.295Z,10.68
2024-04-23T09:53:13.773Z,10.43
2024-04-23T10:00:53.037Z,10.72
2024-04-23T10:08:39.408Z,10.27
2024-04-23T10:16:24.620Z,10.52
2024-04-23T10:24:09.605Z,12.24
2024-04-23T10:31:49.971Z,12.48
2024-04-23T10:39:32.367Z,10.96
2024-04-23T10:47:11.852Z,11.55
2024-04-23T10:54:54.693Z,11.05
2024-04-23T11:02:41.277Z,11.48
2024-04-23T11:10:25.280Z,11.05
2024-04-23T11:18:09.419Z,11.33
2024-04-23T11:25:53.606Z,11.45
2024-04-23T11:33:34.141Z,11.67
2024-04-23T11:41:18.831Z,11.28
2024-04-23T11:48:58.373Z,11.11
2024-04-23T11:56:40.539Z,10.81
2024-04-23T12:04:22.808Z,11.54
2024-04-23T12:12:05.377Z,11.23
2024-04-23T12:19:44.536Z,11.34
2024-04-23T12:27:27.760Z,10.99
2024-04-23T12:35:07.898Z,11.72
2024-04-23T12:42:50.292Z,11.54
2024-04-23T12:50:29.715Z,11.87
2024-04-23T12:58:11.486Z,12.38
2024-04-23T13:05:51.052Z,10.47
2024-04-23T13:13:32.970Z,9.84
2024-04-23T13:21:13.635Z,9.77
2024-04-23T13:28:54.960Z,9.63
2024-04-23T13:36:34.307Z,10.03
2024-04-23T13:44:16.608Z,10.87
2024-04-23T13:51:56.204Z,10.42
2024-04-23T13:59:38.166Z,10.25
2024-04-23T14:07:22.097Z,9.80
2024-04-23T14:15:06.240Z,10.57
2024-04-23T14:22:45.731Z,9.72
2024-04-23T14:30:27.845Z,10.13
2024-04-23T14:38:08.050Z,10.11
2024-04-23T14:45:49.581Z,10.05
2024-04-23T14:53:29.297Z,10.40
2024-04-23T15:01:16.168Z,9.99
2024-04-23T15:08:57.697Z,9.82
2024-04-23T15:16:39.842Z,9.78
2024-04-23T15:24:18.597Z,9.58
2024-04-23T15:32:01.409Z,9.43
2024-04-23T15:39:40.734Z,9.40
2024-04-23T15:47:23.671Z,9.31
2024-04-23T15:55:02.944Z,9.17
2024-04-23T16:02:45.613Z,9.14
2024-04-23T16:10:24.887Z,9.20
2024-04-23T16:18:09.240Z,9.24
2024-04-23T16:25:50.030Z,8.97
2024-04-23T16:33:35.758Z,8.79
2024-04-23T16:41:15.458Z,8.82
2024-04-23T16:48:57.190Z,8.81
2024-04-23T16:56:36.975Z,8.83
2024-04-23T17:04:19.336Z,8.72
2024-04-23T17:11:59.027Z,8.60
2024-04-23T17:19:41.195Z,8.50
2024-04-23T17:27:20.462Z,8.41
2024-04-23T17:35:04.169Z,8.32
2024-04-23T17:42:43.085Z,8.20
2024-04-23T17:50:24.848Z,8.00
2024-04-23T17:58:04.122Z,7.83
2024-04-23T18:05:46.900Z,7.57
2024-04-23T18:13:26.246Z,7.35
2024-04-23T18:21:12.353Z,7.17
2024-04-23T18:28:52.367Z,6.89
2024-04-23T18:36:35.452Z,6.77
2024-04-23T18:44:16.691Z,6.66
2024-04-23T18:51:58.926Z,6.68
2024-04-23T18:59:37.900Z,6.69
2024-04-23T19:07:20.083Z,6.70
2024-04-23T19:15:00.292Z,6.73
2024-04-23T19:22:42.707Z,6.62
2024-04-23T19:30:22.659Z,6.44
2024-04-23T19:38:04.660Z,6.36
2024-04-23T19:45:45.880Z,6.38
2024-04-23T19:53:28.499Z,6.20
2024-04-23T20:01:11.998Z,6.19
2024-04-23T20:08:55.061Z,6.19
2024-04-23T20:16:34.337Z,6.09
2024-04-23T20:24:15.594Z,6.07
2024-04-23T20:31:55.676Z,5.99
2024-04-23T20:39:38.007Z,6.05
2024-04-23T20:47:17.004Z,6.00
2024-04-23T20:54:59.498Z,5.90
2024-04-23T21:02:39.101Z,5.88
2024-04-23T21:10:21.093Z,5.84
2024-04-23T21:18:02.949Z,5.71
2024-04-23T21:25:44.176Z,5.61
2024-04-23T21:33:23.672Z,5.50
2024-04-23T21:41:10.077Z,5.46
2024-04-23T21:48:50.357Z,5.35
2024-04-23T21:56:33.505Z,5.36
2024-04-23T22:04:12.041Z,5.30
2024-04-23T22:11:57.047Z,5.32
2024-04-23T22:19:36.541Z,5.24
2024-04-23T22:27:18.350Z,5.15
2024-04-23T22:34:57.799Z,5.05
2024-04-23T22:42:41.057Z,4.99
2024-04-23T22:50:20.227Z,4.97
2024-04-23T22:58:02.346Z,4.96
2024-04-23T23:05:41.668Z,4.89
2024-04-23T23:13:23.980Z,4.96
2024-04-23T23:21:03.330Z,4.95
2024-04-23T23:28:46.063Z,4.93
2024-04-23T23:36:25.632Z,4.82
2024-04-23T23:44:08.245Z,4.79
2024-04-23T23:51:47.252Z,4.68
2024-04-23T23:59:28.607Z,4.52
